createdAt,value
2024-01-25T00:00:48.451Z,2.76
2024-01-25T00:03:15.145Z,2.91
2024-01-25T00:05:41.986Z,3.17
2024-01-25T00:08:08.773Z,3.15
2024-01-25T00:10:35.485Z,2.13
2024-01-25T00:13:02.869Z,2.28
2024-01-25T00:15:30.042Z,2.54
2024-01-25T00:17:58.178Z,2.17
2024-01-25T00:20:25.244Z,2.37
2024-01-25T00:22:52.126Z,2.53
2024-01-25T00:25:19.115Z,2.70
2024-01-25T00:27:46.270Z,1.49
2024-01-25T00:30:13.151Z,1.97
2024-01-25T00:32:39.907Z,2.73
2024-01-25T00:35:07.369Z,2.34
2024-01-25T00:37:34.380Z,2.74
2024-01-25T00:40:01.463Z,2.95
2024-01-25T00:42:29.544Z,2.76
2024-01-25T00:44:56.588Z,3.01
2024-01-25T00:47:24.167Z,2.53
2024-01-25T00:49:51.303Z,3.02
2024-01-25T00:52:18.507Z,3.38
2024-01-25T00:54:45.555Z,3.43
2024-01-25T00:57:12.831Z,3.35
2024-01-25T00:59:39.892Z,2.74
2024-01-25T01:02:12.034Z,3.15
2024-01-25T01:04:47.264Z,2.40
2024-01-25T01:07:16.316Z,2.69
2024-01-25T01:09:43.381Z,2.30
2024-01-25T01:12:10.307Z,1.87
2024-01-25T01:14:37.053Z,2.19
2024-01-25T01:17:04.263Z,2.49
2024-01-25T01:19:30.992Z,2.27
2024-01-25T01:21:57.976Z,2.80
2024-01-25T01:24:24.754Z,1.95
2024-01-25T01:26:51.860Z,1.55
2024-01-25T01:29:19.489Z,1.97
2024-01-25T01:31:47.856Z,2.42
2024-01-25T01:34:15.498Z,2.26
2024-01-25T01:36:42.746Z,2.00
2024-01-25T01:39:09.385Z,2.29
2024-01-25T01:41:36.186Z,2.86
2024-01-25T01:44:03.124Z,3.03
2024-01-25T01:46:38.928Z,3.13
2024-01-25T01:49:06.400Z,3.02
2024-01-25T01:51:34.457Z,3.19
2024-01-25T01:54:06.814Z,2.99
2024-01-25T01:56:34.254Z,3.14
2024-01-25T01:59:03.293Z,3.29
2024-01-25T02:01:30.528Z,3.07
2024-01-25T02:03:57.593Z,3.04
2024-01-25T02:06:27.525Z,2.87
2024-01-25T02:08:54.466Z,2.85
2024-01-25T02:11:21.581Z,2.73
2024-01-25T02:13:51.072Z,2.89
2024-01-25T02:16:19.445Z,0.92
2024-01-25T02:18:46.647Z,1.82
2024-01-25T02:21:13.383Z,2.52
2024-01-25T02:23:40.387Z,2.45
2024-01-25T02:26:07.835Z,2.57
2024-01-25T02:28:35.914Z,2.81
2024-01-25T02:31:04.060Z,2.74
2024-01-25T02:33:31.364Z,2.68
2024-01-25T02:35:58.784Z,2.12
2024-01-25T02:38:25.743Z,0.51
2024-01-25T02:40:54.716Z,1.48
2024-01-25T02:43:21.782Z,1.83
2024-01-25T02:45:49.756Z,0.95
2024-01-25T02:48:16.789Z,1.85
2024-01-25T02:50:43.789Z,1.92
2024-01-25T02:53:10.583Z,2.69
2024-01-25T02:55:37.374Z,2.57
2024-01-25T02:58:04.313Z,2.51
2024-01-25T03:00:31.174Z,3.28
2024-01-25T03:02:58.155Z,2.87
2024-01-25T03:05:25.199Z,2.40
2024-01-25T03:07:52.116Z,1.98
2024-01-25T03:10:19.161Z,2.38
2024-01-25T03:12:46.001Z,1.60
2024-01-25T03:15:13.158Z,2.05
2024-01-25T03:17:39.805Z,2.13
2024-01-25T03:20:07.507Z,1.19
2024-01-25T03:22:34.390Z,1.76
2024-01-25T03:25:01.172Z,1.09
2024-01-25T03:27:27.976Z,1.68
2024-01-25T03:29:54.769Z,1.87
2024-01-25T03:32:21.511Z,0.63
2024-01-25T03:34:48.784Z,1.31
2024-01-25T03:37:15.873Z,2.42
2024-01-25T03:39:43.178Z,2.72
2024-01-25T03:42:10.002Z,1.83
2024-01-25T03:44:36.825Z,1.87
2024-01-25T03:47:03.691Z,2.32
2024-01-25T03:49:30.679Z,2.50
2024-01-25T03:51:57.557Z,1.29
2024-01-25T03:54:24.451Z,2.50
2024-01-25T03:56:51.250Z,2.49
2024-01-25T03:59:18.351Z,2.81
2024-01-25T04:01:46.181Z,3.03
2024-01-25T04:04:14.318Z,1.65
2024-01-25T04:06:45.384Z,2.47
2024-01-25T04:09:12.337Z,2.99
2024-01-25T04:11:39.182Z,1.34
2024-01-25T04:14:06.182Z,2.13
2024-01-25T04:16:34.476Z,2.83
2024-01-25T04:19:01.558Z,2.17
2024-01-25T04:21:29.064Z,2.76
2024-01-25T04:23:55.900Z,2.22
2024-01-25T04:26:22.760Z,3.15
2024-01-25T04:28:49.488Z,2.22
2024-01-25T04:31:18.229Z,3.24
2024-01-25T04:33:48.314Z,1.64
2024-01-25T04:36:15.851Z,1.92
2024-01-25T04:38:42.667Z,1.66
2024-01-25T04:41:09.444Z,2.12
2024-01-25T04:43:37.807Z,2.16
2024-01-25T04:46:05.367Z,2.49
2024-01-25T04:48:32.685Z,1.81
2024-01-25T04:51:00.356Z,1.91
2024-01-25T04:53:27.274Z,1.91
2024-01-25T04:55:56.237Z,1.54
2024-01-25T04:58:23.574Z,0.85
2024-01-25T05:00:52.245Z,0.85
2024-01-25T05:03:21.066Z,0.87
2024-01-25T05:05:47.999Z,1.71
2024-01-25T05:08:14.973Z,1.38
2024-01-25T05:10:41.819Z,1.80
2024-01-25T05:13:10.392Z,1.74
2024-01-25T05:15:37.435Z,1.88
2024-01-25T05:18:04.854Z,1.68
2024-01-25T05:20:35.611Z,1.92
2024-01-25T05:23:06.384Z,2.29
2024-01-25T05:25:33.824Z,2.39
2024-01-25T05:28:01.288Z,2.55
2024-01-25T05:30:29.022Z,2.75
2024-01-25T05:32:56.568Z,3.13
2024-01-25T05:35:25.046Z,2.36
2024-01-25T05:37:52.080Z,1.50
2024-01-25T05:40:19.345Z,0.98
2024-01-25T05:42:46.545Z,0.97
2024-01-25T05:45:13.782Z,1.32
2024-01-25T05:47:40.767Z,1.39
2024-01-25T05:50:08.232Z,1.34
2024-01-25T05:52:38.078Z,1.33
2024-01-25T05:55:06.361Z,1.70
2024-01-25T05:57:33.792Z,2.89
2024-01-25T06:00:00.719Z,3.51
2024-01-25T06:02:27.644Z,3.59
2024-01-25T06:04:54.654Z,3.77
2024-01-25T06:07:21.741Z,4.34
2024-01-25T06:09:48.503Z,4.79
2024-01-25T06:12:15.570Z,5.40
2024-01-25T06:14:42.412Z,5.39
2024-01-25T06:17:09.215Z,4.93
2024-01-25T06:19:36.149Z,5.44
2024-01-25T06:22:06.295Z,6.19
2024-01-25T06:24:33.171Z,5.50
2024-01-25T06:27:00.690Z,5.52
2024-01-25T06:29:27.505Z,5.48
2024-01-25T06:31:54.288Z,5.00
2024-01-25T06:34:21.215Z,5.66
2024-01-25T06:36:48.191Z,4.77
2024-01-25T06:39:15.512Z,3.78
2024-01-25T06:41:43.081Z,3.86
2024-01-25T06:44:09.955Z,3.51
2024-01-25T06:46:36.802Z,3.90
2024-01-25T06:49:04.264Z,3.91
2024-01-25T06:51:31.467Z,4.62
2024-01-25T06:53:58.251Z,4.98
2024-01-25T06:56:25.000Z,4.58
2024-01-25T06:58:51.796Z,4.22
2024-01-25T07:01:24.254Z,4.70
2024-01-25T07:03:52.098Z,4.27
2024-01-25T07:06:20.230Z,3.81
2024-01-25T07:08:47.475Z,3.75
2024-01-25T07:11:14.348Z,4.88
2024-01-25T07:13:42.352Z,4.90
2024-01-25T07:16:09.467Z,5.76
2024-01-25T07:18:36.562Z,5.04
2024-01-25T07:21:03.780Z,4.88
2024-01-25T07:23:34.976Z,5.66
2024-01-25T07:26:01.687Z,6.30
2024-01-25T07:28:28.758Z,5.52
2024-01-25T07:30:56.057Z,6.34
2024-01-25T07:33:23.610Z,6.66
2024-01-25T09:14:17.100Z,9.70
2024-01-25T09:16:43.880Z,10.83
2024-01-25T09:19:12.059Z,11.66
2024-01-25T09:21:41.085Z,11.97
2024-01-25T09:24:08.485Z,11.60
2024-01-25T09:26:35.216Z,11.34
2024-01-25T09:29:02.716Z,11.75
2024-01-25T09:31:29.933Z,11.12
2024-01-25T09:33:57.020Z,10.91
2024-01-25T09:36:25.132Z,10.99
2024-01-25T09:38:52.314Z,11.01
2024-01-25T09:41:19.079Z,11.20
2024-01-25T09:43:47.040Z,11.24
2024-01-25T09:46:16.654Z,11.34
2024-01-25T09:48:49.338Z,11.77
2024-01-25T09:51:17.099Z,11.64
2024-01-25T09:53:46.647Z,12.07
2024-01-25T09:56:14.341Z,12.26
2024-01-25T09:58:47.137Z,12.78
2024-01-25T10:01:16.429Z,13.28
2024-01-25T10:03:44.408Z,13.71
2024-01-25T10:06:15.352Z,14.25
2024-01-25T10:08:43.038Z,14.46
2024-01-25T10:11:09.920Z,14.87
2024-01-25T10:13:51.991Z,15.42
2024-01-25T10:16:20.489Z,15.47
2024-01-25T10:18:48.661Z,15.45
2024-01-25T10:21:16.936Z,14.36
2024-01-25T10:23:48.901Z,14.17
2024-01-25T10:26:17.728Z,13.69
2024-01-25T10:28:52.100Z,13.74
2024-01-25T10:31:19.512Z,13.82
2024-01-25T10:33:48.445Z,14.74
2024-01-25T10:36:15.732Z,15.07
2024-01-25T10:38:45.523Z,15.65
2024-01-25T10:41:17.486Z,15.80
2024-01-25T10:43:50.117Z,15.82
2024-01-25T10:46:18.084Z,15.46
2024-01-25T10:48:51.181Z,14.35
2024-01-25T10:51:20.807Z,14.51
2024-01-25T10:53:47.912Z,14.77
2024-01-25T10:56:15.025Z,15.01
2024-01-25T10:58:43.211Z,15.44
2024-01-25T11:01:16.279Z,15.71
2024-01-25T11:03:47.367Z,15.16
2024-01-25T11:06:15.150Z,15.12
2024-01-25T11:08:42.383Z,14.73
2024-01-25T11:11:12.031Z,15.07
2024-01-25T11:13:43.200Z,16.03
2024-01-25T11:16:28.524Z,16.44
2024-01-25T11:19:00.557Z,16.58
2024-01-25T11:21:40.254Z,17.28
2024-01-25T11:24:12.577Z,17.03
2024-01-25T11:26:39.418Z,16.46
2024-01-25T11:29:06.593Z,16.99
2024-01-25T11:31:33.435Z,16.99
2024-01-25T11:34:01.273Z,17.01
2024-01-25T11:36:29.046Z,17.83
2024-01-25T11:38:56.601Z,17.93
2024-01-25T11:41:23.417Z,18.29
2024-01-25T11:43:50.476Z,18.77
2024-01-25T11:46:19.254Z,18.92
2024-01-25T11:48:46.857Z,19.13
2024-01-25T11:51:14.394Z,19.36
2024-01-25T11:53:42.258Z,19.32
2024-01-25T11:56:12.057Z,19.36
2024-01-25T11:58:42.154Z,19.48
2024-01-25T12:01:10.956Z,19.67
2024-01-25T12:03:42.144Z,17.88
2024-01-25T12:06:12.161Z,18.01
2024-01-25T12:08:39.530Z,17.52
2024-01-25T12:11:08.352Z,17.62
2024-01-25T12:13:37.047Z,18.45
2024-01-25T12:16:06.084Z,18.83
2024-01-25T12:18:33.876Z,19.22
2024-01-25T12:21:02.215Z,19.39
2024-01-25T12:23:37.110Z,20.10
2024-01-25T12:26:06.914Z,19.43
2024-01-25T12:28:34.275Z,19.14
2024-01-25T12:31:02.474Z,18.59
2024-01-25T12:33:29.521Z,19.03
2024-01-25T12:35:56.954Z,19.29
2024-01-25T12:38:24.306Z,19.79
2024-01-25T12:40:51.533Z,19.49
2024-01-25T12:43:22.644Z,19.12
2024-01-25T12:45:49.975Z,19.55
2024-01-25T12:48:18.235Z,19.81
2024-01-25T12:50:45.580Z,19.99
2024-01-25T12:53:13.068Z,20.12
2024-01-25T12:55:40.084Z,20.10
2024-01-25T12:58:06.963Z,19.90
2024-01-25T13:00:34.494Z,18.83
2024-01-25T13:03:04.839Z,18.72
2024-01-25T13:05:35.291Z,19.17
2024-01-25T13:08:05.447Z,18.54
2024-01-25T13:10:32.196Z,18.70
2024-01-25T13:12:59.513Z,18.79
2024-01-25T13:15:27.464Z,18.86
2024-01-25T13:17:54.247Z,19.11
2024-01-25T13:20:21.450Z,19.37
2024-01-25T13:22:48.189Z,19.59
2024-01-25T13:25:16.320Z,19.80
2024-01-25T13:27:43.463Z,19.74
2024-01-25T13:30:13.066Z,19.69
2024-01-25T13:32:40.248Z,19.83
2024-01-25T13:35:08.266Z,20.07
2024-01-25T13:37:35.191Z,20.34
2024-01-25T13:40:01.872Z,20.40
2024-01-25T13:42:28.629Z,20.40
2024-01-25T13:44:55.411Z,20.14
2024-01-25T13:47:25.752Z,20.03
2024-01-25T13:49:54.003Z,20.28
2024-01-25T13:52:21.416Z,20.48
2024-01-25T13:54:50.616Z,19.35
2024-01-25T13:57:18.201Z,19.53
2024-01-25T13:59:45.068Z,19.66
2024-01-25T14:02:11.960Z,19.54
2024-01-25T14:04:39.178Z,18.02
2024-01-25T14:07:06.788Z,17.33
2024-01-25T14:09:34.179Z,17.42
2024-01-25T14:12:01.315Z,18.10
2024-01-25T14:14:28.302Z,18.18
2024-01-25T14:17:00.623Z,18.75
2024-01-25T14:19:28.690Z,18.56
2024-01-25T14:22:04.653Z,17.80
2024-01-25T14:24:47.260Z,17.72
2024-01-25T14:27:16.048Z,17.22
2024-01-25T14:29:43.448Z,17.10
2024-01-25T14:32:10.583Z,16.93
2024-01-25T14:34:37.638Z,16.10
2024-01-25T14:37:04.696Z,15.93
2024-01-25T14:39:31.647Z,15.59
2024-01-25T14:41:59.097Z,15.51
2024-01-25T14:44:25.834Z,15.44
2024-01-25T14:46:52.708Z,15.47
2024-01-25T14:49:19.434Z,15.11
2024-01-25T14:51:46.357Z,14.99
2024-01-25T14:54:13.192Z,15.00
2024-01-25T14:56:39.861Z,15.07
2024-01-25T14:59:06.644Z,14.95
2024-01-25T15:01:33.521Z,14.88
2024-01-25T15:04:00.720Z,14.15
2024-01-25T15:06:27.827Z,14.03
2024-01-25T15:08:54.660Z,13.35
2024-01-25T15:11:21.408Z,12.86
2024-01-25T15:13:49.797Z,12.71
2024-01-25T15:16:20.207Z,12.67
2024-01-25T15:18:48.443Z,12.44
2024-01-25T15:21:15.665Z,12.50
2024-01-25T15:23:42.491Z,11.98
2024-01-25T15:26:09.308Z,11.14
2024-01-25T15:28:36.065Z,12.87
2024-01-25T15:31:03.186Z,10.61
2024-01-25T15:33:30.343Z,9.91
2024-01-25T15:35:57.345Z,10.04
2024-01-25T15:38:24.264Z,10.32
2024-01-25T15:40:52.045Z,10.15
2024-01-25T15:43:19.335Z,11.03
2024-01-25T15:45:46.393Z,10.36
2024-01-25T15:48:13.256Z,11.93
2024-01-25T15:50:40.913Z,11.25
2024-01-25T15:53:07.856Z,10.44
2024-01-25T15:55:35.301Z,9.38
2024-01-25T15:58:02.239Z,9.42
2024-01-25T16:00:29.090Z,9.42
2024-01-25T16:02:57.920Z,9.67
2024-01-25T16:05:25.026Z,9.89
2024-01-25T16:07:52.420Z,10.01
2024-01-25T16:10:21.471Z,9.69
2024-01-25T16:12:50.168Z,9.28
2024-01-25T16:15:18.612Z,8.86
2024-01-25T16:17:45.696Z,8.51
2024-01-25T16:20:13.707Z,8.46
2024-01-25T16:22:40.502Z,8.68
2024-01-25T16:25:07.769Z,8.90
2024-01-25T16:27:34.643Z,9.63
2024-01-25T16:30:01.558Z,8.47
2024-01-25T16:32:28.284Z,7.92
2024-01-25T16:34:55.486Z,7.48
2024-01-25T16:37:22.307Z,6.77
2024-01-25T16:39:49.233Z,6.60
2024-01-25T16:42:16.057Z,5.91
2024-01-25T16:44:42.821Z,5.89
2024-01-25T16:47:09.581Z,6.30
2024-01-25T16:49:37.329Z,6.69
2024-01-25T16:52:04.820Z,6.82
2024-01-25T16:54:31.886Z,6.71
2024-01-25T16:56:58.774Z,7.61
2024-01-25T16:59:25.689Z,6.76
2024-01-25T17:01:52.612Z,6.45
2024-01-25T17:04:20.283Z,6.28
2024-01-25T17:06:47.945Z,6.43
2024-01-25T17:09:15.011Z,6.10
2024-01-25T17:11:42.301Z,5.74
2024-01-25T17:14:10.141Z,6.20
2024-01-25T17:16:37.684Z,5.34
2024-01-25T17:19:04.882Z,5.08
2024-01-25T17:21:31.970Z,4.58
2024-01-25T17:23:59.353Z,4.82
2024-01-25T17:26:26.276Z,5.00
2024-01-25T17:28:54.724Z,4.99
2024-01-25T17:31:21.688Z,4.96
2024-01-25T17:33:49.213Z,5.47
2024-01-25T17:36:18.556Z,5.05
2024-01-25T17:38:45.734Z,6.19
2024-01-25T17:41:12.622Z,6.31
2024-01-25T17:43:39.482Z,6.68
2024-01-25T17:46:06.587Z,5.71
2024-01-25T17:48:35.218Z,5.05
2024-01-25T17:51:02.644Z,4.51
2024-01-25T17:53:29.368Z,4.40
2024-01-25T17:55:57.510Z,4.35
2024-01-25T17:58:24.967Z,4.03
2024-01-25T18:00:53.249Z,3.77
2024-01-25T18:03:20.609Z,3.63
2024-01-25T18:05:47.583Z,3.60
2024-01-25T18:08:14.831Z,3.61
2024-01-25T18:10:42.640Z,3.48
2024-01-25T18:13:13.695Z,3.44
2024-01-25T18:15:43.672Z,3.19
2024-01-25T18:18:26.081Z,3.32
2024-01-25T18:21:02.918Z,3.03
2024-01-25T18:23:35.647Z,2.70
2024-01-25T18:26:07.863Z,2.63
2024-01-25T18:28:38.845Z,1.86
2024-01-25T18:31:06.598Z,1.86
2024-01-25T18:33:37.899Z,2.26
2024-01-25T18:36:12.121Z,2.47
2024-01-25T18:38:46.386Z,3.06
2024-01-25T18:41:17.564Z,2.67
2024-01-25T18:43:48.980Z,2.55
2024-01-25T18:46:19.956Z,2.67
2024-01-25T18:48:47.748Z,2.48
2024-01-25T18:51:14.709Z,1.82
2024-01-25T18:53:41.782Z,2.09
2024-01-25T18:56:09.159Z,2.42
2024-01-25T18:58:36.184Z,2.41
2024-01-25T19:01:10.063Z,2.74
2024-01-25T19:03:41.349Z,4.07
2024-01-25T19:06:13.609Z,2.65
2024-01-25T19:08:44.501Z,2.65
2024-01-25T19:11:15.016Z,2.64
2024-01-25T19:13:42.429Z,3.90
2024-01-25T19:16:09.464Z,3.25
2024-01-25T19:18:36.267Z,2.26
2024-01-25T19:21:04.099Z,2.58
2024-01-25T19:23:31.848Z,2.77
2024-01-25T19:25:59.000Z,2.38
2024-01-25T19:28:25.765Z,1.60
2024-01-25T19:30:52.571Z,1.65
2024-01-25T19:33:19.972Z,2.60
2024-01-25T19:35:52.984Z,2.42
2024-01-25T19:38:21.022Z,2.33
2024-01-25T19:40:47.806Z,1.55
2024-01-25T19:43:14.640Z,1.14
2024-01-25T19:45:41.710Z,2.57
2024-01-25T19:48:08.790Z,3.65
2024-01-25T19:50:35.610Z,3.58
2024-01-25T19:53:08.943Z,2.94
2024-01-25T19:55:40.203Z,2.40
2024-01-25T19:58:11.101Z,2.10
2024-01-25T20:00:39.134Z,2.12
2024-01-25T20:03:06.310Z,2.17
2024-01-25T20:05:33.462Z,2.01
2024-01-25T20:08:00.248Z,1.94
2024-01-25T20:10:27.730Z,1.86
2024-01-25T20:12:54.990Z,1.89
2024-01-25T20:15:26.179Z,1.91
2024-01-25T20:17:57.199Z,1.82
2024-01-25T20:20:42.383Z,1.36
2024-01-25T20:23:14.275Z,0.83
2024-01-25T20:25:41.020Z,0.71
2024-01-25T20:28:08.445Z,0.70
2024-01-25T20:30:41.533Z,0.90
2024-01-25T20:33:12.796Z,1.03
2024-01-25T20:35:47.302Z,1.05
2024-01-25T20:38:19.045Z,1.02
2024-01-25T20:40:49.914Z,0.82
2024-01-25T20:43:21.487Z,0.73
2024-01-25T20:45:55.173Z,0.71
2024-01-25T20:48:25.865Z,2.02
2024-01-25T20:50:56.970Z,0.77
2024-01-25T20:53:32.659Z,1.03
2024-01-25T20:56:06.846Z,1.65
2024-01-25T20:58:38.901Z,2.13
2024-01-25T21:01:10.372Z,1.57
2024-01-25T21:03:42.705Z,1.34
2024-01-25T21:06:14.741Z,2.08
2024-01-25T21:08:46.504Z,0.72
2024-01-25T21:11:17.997Z,0.40
2024-01-25T21:13:50.323Z,0.66
2024-01-25T21:16:25.186Z,0.74
2024-01-25T21:18:56.563Z,0.78
2024-01-25T21:21:27.305Z,0.75
2024-01-25T21:24:04.513Z,0.74
2024-01-25T21:26:36.188Z,0.78
2024-01-25T21:29:07.543Z,2.19
2024-01-25T21:31:38.481Z,1.00
2024-01-25T21:34:14.231Z,1.06
2024-01-25T21:36:45.559Z,0.91
2024-01-25T21:39:13.517Z,1.44
2024-01-25T21:41:40.289Z,1.78
2024-01-25T21:44:07.971Z,0.57
2024-01-25T21:46:34.777Z,1.76
2024-01-25T21:49:02.165Z,1.71
2024-01-25T21:51:29.146Z,1.54
2024-01-25T21:53:55.895Z,1.52
2024-01-25T21:56:22.732Z,1.50
2024-01-25T21:58:49.568Z,2.51
2024-01-25T22:01:16.464Z,2.40
2024-01-25T22:03:43.445Z,1.79
2024-01-25T22:06:10.280Z,1.11
2024-01-25T22:08:37.063Z,0.89
2024-01-25T22:11:03.955Z,0.77
2024-01-25T22:13:31.839Z,0.63
2024-01-25T22:15:58.858Z,0.40
2024-01-25T22:18:25.896Z,0.24
2024-01-25T22:20:52.698Z,0.36
2024-01-25T22:23:19.505Z,0.41
2024-01-25T22:25:46.292Z,-0.01
2024-01-25T22:28:13.755Z,-0.28
2024-01-25T22:30:40.819Z,-0.42
2024-01-25T22:33:07.791Z,-0.09
2024-01-25T22:35:34.606Z,0.17
2024-01-25T22:38:01.401Z,0.02
2024-01-25T22:40:29.426Z,0.06
2024-01-25T22:42:56.265Z,-0.09
2024-01-25T22:45:24.164Z,-0.18
2024-01-25T22:47:51.251Z,0.00
2024-01-25T22:50:18.081Z,0.02
2024-01-25T22:52:44.906Z,0.03
2024-01-25T22:55:12.327Z,-0.01
2024-01-25T22:57:39.199Z,0.05
2024-01-25T23:00:10.903Z,0.36
2024-01-25T23:02:37.714Z,0.22
2024-01-25T23:05:04.887Z,0.16
2024-01-25T23:07:31.526Z,0.01
2024-01-25T23:09:59.072Z,-0.01
2024-01-25T23:12:26.040Z,-0.17
2024-01-25T23:14:52.836Z,-0.29
2024-01-25T23:17:19.572Z,-0.39
2024-01-25T23:19:48.337Z,-0.28
2024-01-25T23:22:15.296Z,-0.06
2024-01-25T23:24:42.108Z,-0.19
2024-01-25T23:27:09.491Z,-0.03
2024-01-25T23:29:36.244Z,0.01
2024-01-25T23:32:03.056Z,0.17
2024-01-25T23:34:29.906Z,0.21
2024-01-25T23:36:56.723Z,0.22
2024-01-25T23:39:23.522Z,0.19
2024-01-25T23:41:50.318Z,0.22
2024-01-25T23:44:17.601Z,0.18
2024-01-25T23:46:44.413Z,-0.08
2024-01-25T23:49:11.496Z,0.02
2024-01-25T23:51:42.114Z,0.06
2024-01-25T23:54:09.237Z,-0.19
2024-01-25T23:56:38.376Z,-0.53
2024-01-25T23:59:05.207Z,1.13
